This is the latest recevied weather packets stored in our database for station/object KI2K. If no packets are shown the sender has not sent any weather packets the latest 10 day(s).
| Time | Temp. | Humidity | Pressure | Rain* | Wind** | Luminosity | Snow |
|---|---|---|---|---|---|---|---|
| 1777927510 | 23.33° C | 63% | 1004.3 hPa | 0 mm | - | 454 W/m² | - |
| 1777927209 | 23.33° C | 64% | 1004.5 hPa | 0 mm | - | 603 W/m² | - |
| 1777926907 | 22.78° C | 65% | 1004.5 hPa | 0 mm | - | 396 W/m² | - |
| 1777926604 | 22.78° C | 65% | 1004.4 hPa | 0 mm | - | 539 W/m² | - |
| 1777926299 | 21.67° C | 67% | 1004.5 hPa | 0 mm | - | 469 W/m² | - |
| 1777925996 | 21.67° C | 72% | 1004.7 hPa | 0 mm | - | 312 W/m² | - |
| 1777925693 | 20.56° C | 76% | 1004.6 hPa | 0 mm | - | 707 W/m² | - |
| 1777925390 | 20.56° C | 76% | 1004.7 hPa | 0 mm | - | 283 W/m² | - |
| 1777925087 | 19.44° C | 82% | 1005 hPa | 0 mm | - | 535 W/m² | - |
| 1777924784 | 17.78° C | 85% | 1004.9 hPa | 0 mm | - | 288 W/m² | - |
| 1777924480 | 17.78° C | 84% | 1004.7 hPa | 0 mm | - | 111 W/m² | - |
| 1777924177 | 17.78° C | 85% | 1005.3 hPa | 0 mm | - | 106 W/m² | - |
| 1777923873 | 17.22° C | 86% | 1005.7 hPa | 1.27 mm | - | 285 W/m² | - |
| 1777923569 | 16.67° C | 86% | 1006 hPa | 3.05 mm | - | 194 W/m² | - |
| 1777923266 | 16.67° C | 85% | 1006.3 hPa | 3.05 mm | - | 98 W/m² | - |
| 1777922965 | 17.22° C | 81% | 1006.3 hPa | 0 mm | - | 30 W/m² | - |
| 1777922661 | 17.22° C | 79% | 1005.8 hPa | 0 mm | - | 22 W/m² | - |
| 1777922361 | 17.78° C | 76% | 1005.7 hPa | 0 mm | - | 40 W/m² | - |
| 1777922058 | 17.78° C | 75% | 1005.4 hPa | 0 mm | - | 84 W/m² | - |
| 1777921753 | 17.78° C | 74% | 1005.1 hPa | 0 mm | - | 105 W/m² | - |
| 1777921449 | 17.78° C | 75% | 1005 hPa | 0 mm | - | 61 W/m² | - |
| 1777921146 | 17.78° C | 75% | 1005.1 hPa | 0 mm | - | 48 W/m² | - |
| 1777920843 | 17.22° C | 75% | 1005 hPa | 0 mm | - | 55 W/m² | - |
| 1777920539 | 17.22° C | 74% | 1005 hPa | 0 mm | - | 44 W/m² | - |
| 1777920235 | 17.22° C | 74% | 1005.1 hPa | 0 mm | - | 76 W/m² | - |
* Rain latest hour (hover to see other rain measurements)
** Current wind speed in m/s (hover to see current wind gust speed)